UAL731 KDEN-KLAX
Flight info
| Callsign | UAL731 |
|---|---|
| Flight time | 1h 52m |
| Altitude | 34000 |
| Route | BAYLR6 TEHRU JASSE Q90 DNERO ANJLL4 |
| Aircraft | A320/M-SDE3FGHIRWY/LB1 |
Departure
| Time | 2026-04-19 23:18 |
|---|---|
| Airport | Denver International Airport (KDEN) |
Arrival
| Time | 2026-04-20 01:10 |
|---|---|
| Airport | Los Angeles International Airport (KLAX) |
| Time | Latitude | Longitude | Altitude | Speed | Heading |
|---|---|---|---|---|---|
| 2026-04-19 22:34 | 39.85803 | -104.66993 | 5366 ft | 0 kts | 0° |
| 2026-04-19 23:05 | 39.85790 | -104.66993 | 5362 ft | 3 kts | 0° |
| 2026-04-19 23:05 | 39.85763 | -104.66993 | 5362 ft | 3 kts | 0° |
| 2026-04-19 23:06 | 39.85736 | -104.66994 | 5362 ft | 4 kts | 0° |
| 2026-04-19 23:06 | 39.85724 | -104.66994 | 5364 ft | 0 kts | 0° |
| 2026-04-19 23:10 | 39.85725 | -104.66994 | 5363 ft | 1 kts | 0° |
| 2026-04-19 23:10 | 39.85735 | -104.67022 | 5364 ft | 8 kts | 268° |
| 2026-04-19 23:10 | 39.85733 | -104.67144 | 5366 ft | 19 kts | 271° |
| 2026-04-19 23:11 | 39.85735 | -104.67350 | 5365 ft | 24 kts | 270° |
| 2026-04-19 23:11 | 39.85737 | -104.67574 | 5366 ft | 25 kts | 270° |
| 2026-04-19 23:11 | 39.85737 | -104.67793 | 5364 ft | 24 kts | 270° |
| 2026-04-19 23:11 | 39.85738 | -104.68016 | 5366 ft | 25 kts | 270° |
| 2026-04-19 23:12 | 39.85724 | -104.68183 | 5365 ft | 14 kts | 227° |
| 2026-04-19 23:12 | 39.85687 | -104.68295 | 5366 ft | 14 kts | 270° |
| 2026-04-19 23:12 | 39.85688 | -104.68428 | 5366 ft | 15 kts | 270° |
| 2026-04-19 23:12 | 39.85669 | -104.68509 | 5365 ft | 9 kts | 204° |
| 2026-04-19 23:13 | 39.85606 | -104.68513 | 5363 ft | 10 kts | 180° |
| 2026-04-19 23:13 | 39.85517 | -104.68514 | 5365 ft | 16 kts | 180° |
| 2026-04-19 23:13 | 39.85392 | -104.68515 | 5366 ft | 20 kts | 180° |
| 2026-04-19 23:13 | 39.85250 | -104.68517 | 5365 ft | 21 kts | 180° |
| 2026-04-19 23:14 | 39.85136 | -104.68518 | 5365 ft | 6 kts | 182° |
| 2026-04-19 23:14 | 39.85132 | -104.68502 | 5365 ft | 5 kts | 53° |
| 2026-04-19 23:14 | 39.85193 | -104.68522 | 5365 ft | 14 kts | 315° |
| 2026-04-19 23:14 | 39.85203 | -104.68678 | 5366 ft | 19 kts | 270° |
| 2026-04-19 23:15 | 39.85201 | -104.68853 | 5363 ft | 20 kts | 269° |
| 2026-04-19 23:15 | 39.85197 | -104.69034 | 5366 ft | 21 kts | 268° |
| 2026-04-19 23:15 | 39.85194 | -104.69223 | 5366 ft | 21 kts | 272° |
| 2026-04-19 23:15 | 39.85202 | -104.69418 | 5366 ft | 22 kts | 270° |
| 2026-04-19 23:16 | 39.85201 | -104.69587 | 5364 ft | 11 kts | 270° |
| 2026-04-19 23:16 | 39.85248 | -104.69657 | 5363 ft | 10 kts | 350° |
| 2026-04-19 23:16 | 39.85257 | -104.69657 | 5364 ft | 0 kts | 359° |
| 2026-04-19 23:17 | 39.85261 | -104.69657 | 5364 ft | 4 kts | 359° |
| 2026-04-19 23:17 | 39.85550 | -104.69658 | 5367 ft | 83 kts | 0° |
| 2026-04-19 23:17 | 39.86380 | -104.69648 | 5364 ft | 151 kts | 0° |
| 2026-04-19 23:18 | 39.87623 | -104.69644 | 5367 ft | 205 kts | 0° |
| 2026-04-19 23:18 | 39.89173 | -104.69617 | 5647 ft | 236 kts | 0° |
| 2026-04-19 23:18 | 39.90866 | -104.69583 | 6249 ft | 250 kts | 0° |
| 2026-04-19 23:18 | 39.92671 | -104.69719 | 6535 ft | 271 kts | 342° |
| 2026-04-19 23:19 | 39.94268 | -104.71038 | 6665 ft | 277 kts | 308° |
| 2026-04-19 23:19 | 39.95028 | -104.73312 | 6794 ft | 278 kts | 275° |
| 2026-04-19 23:19 | 39.94681 | -104.75758 | 6924 ft | 278 kts | 240° |
| 2026-04-19 23:19 | 39.93348 | -104.77552 | 7046 ft | 280 kts | 211° |
| 2026-04-19 23:20 | 39.91683 | -104.78891 | 7168 ft | 281 kts | 217° |
| 2026-04-19 23:20 | 39.90166 | -104.80481 | 7496 ft | 284 kts | 220° |
| 2026-04-19 23:20 | 39.88641 | -104.82148 | 8383 ft | 286 kts | 220° |
| 2026-04-19 23:20 | 39.87111 | -104.83824 | 9189 ft | 289 kts | 220° |
| 2026-04-19 23:21 | 39.85556 | -104.85526 | 9967 ft | 293 kts | 220° |
| 2026-04-19 23:21 | 39.83959 | -104.87276 | 10253 ft | 315 kts | 220° |
| 2026-04-19 23:21 | 39.82234 | -104.89166 | 10618 ft | 330 kts | 220° |
| 2026-04-19 23:21 | 39.80460 | -104.91109 | 11256 ft | 335 kts | 220° |
| 2026-04-19 23:22 | 39.78661 | -104.93080 | 11940 ft | 339 kts | 220° |
| 2026-04-19 23:22 | 39.76865 | -104.95049 | 12608 ft | 343 kts | 221° |
| 2026-04-19 23:22 | 39.75238 | -104.97331 | 13249 ft | 346 kts | 236° |
| 2026-04-19 23:22 | 39.73922 | -104.99974 | 13902 ft | 349 kts | 238° |
| 2026-04-19 23:23 | 39.72629 | -105.02631 | 14483 ft | 353 kts | 238° |
| 2026-04-19 23:23 | 39.71316 | -105.05351 | 15111 ft | 356 kts | 238° |
| 2026-04-19 23:23 | 39.69995 | -105.08097 | 15712 ft | 359 kts | 238° |
| 2026-04-19 23:23 | 39.69180 | -105.09786 | 16066 ft | 361 kts | 238° |
| 2026-04-19 23:24 | 39.68744 | -105.10687 | 16253 ft | 362 kts | 238° |
| 2026-04-19 23:24 | 39.67414 | -105.13433 | 16823 ft | 365 kts | 238° |
| 2026-04-19 23:24 | 39.66051 | -105.16245 | 17382 ft | 369 kts | 238° |
| 2026-04-19 23:25 | 39.64673 | -105.19078 | 17933 ft | 372 kts | 238° |
| 2026-04-19 23:25 | 39.63282 | -105.21934 | 18444 ft | 376 kts | 238° |
| 2026-04-19 23:25 | 39.61890 | -105.24784 | 18911 ft | 379 kts | 238° |
| 2026-04-19 23:25 | 39.60470 | -105.27692 | 19392 ft | 383 kts | 238° |
| 2026-04-19 23:26 | 39.59039 | -105.30625 | 19865 ft | 386 kts | 238° |
| 2026-04-19 23:26 | 39.57592 | -105.33567 | 20348 ft | 388 kts | 237° |
| 2026-04-19 23:26 | 39.56131 | -105.36531 | 20826 ft | 390 kts | 238° |
| 2026-04-19 23:26 | 39.54668 | -105.39509 | 21303 ft | 392 kts | 238° |
| 2026-04-19 23:27 | 39.53222 | -105.42460 | 21773 ft | 393 kts | 238° |
| 2026-04-19 23:27 | 39.51754 | -105.45457 | 22249 ft | 394 kts | 238° |
| 2026-04-19 23:27 | 39.50281 | -105.48471 | 22727 ft | 395 kts | 238° |
| 2026-04-19 23:27 | 39.48800 | -105.51497 | 23206 ft | 396 kts | 238° |
| 2026-04-19 23:28 | 39.47316 | -105.54513 | 23682 ft | 397 kts | 237° |
| 2026-04-19 23:28 | 39.45847 | -105.57489 | 24151 ft | 397 kts | 237° |
| 2026-04-19 23:28 | 39.44356 | -105.60510 | 24628 ft | 397 kts | 237° |
| 2026-04-19 23:28 | 39.42863 | -105.63532 | 25104 ft | 397 kts | 237° |
| 2026-04-19 23:29 | 39.41377 | -105.66540 | 25579 ft | 395 kts | 237° |
| 2026-04-19 23:29 | 39.39915 | -105.69497 | 26048 ft | 393 kts | 237° |
| 2026-04-19 23:29 | 39.38443 | -105.72472 | 26525 ft | 392 kts | 237° |
| 2026-04-19 23:29 | 39.36973 | -105.75438 | 27001 ft | 390 kts | 237° |
| 2026-04-19 23:30 | 39.35507 | -105.78392 | 27477 ft | 388 kts | 237° |
| 2026-04-19 23:30 | 39.34055 | -105.81315 | 27953 ft | 386 kts | 237° |
| 2026-04-19 23:30 | 39.32608 | -105.84227 | 28434 ft | 383 kts | 237° |
| 2026-04-19 23:30 | 39.31175 | -105.87111 | 28899 ft | 380 kts | 237° |
| 2026-04-19 23:31 | 39.29753 | -105.89974 | 29374 ft | 376 kts | 237° |
| 2026-04-19 23:31 | 39.28365 | -105.92766 | 29841 ft | 372 kts | 237° |
| 2026-04-19 23:31 | 39.26971 | -105.95565 | 30317 ft | 367 kts | 237° |
| 2026-04-19 23:31 | 39.25599 | -105.98317 | 30779 ft | 362 kts | 237° |
| 2026-04-19 23:32 | 39.24230 | -106.01061 | 31010 ft | 364 kts | 237° |
| 2026-04-19 23:32 | 39.22869 | -106.03782 | 31227 ft | 365 kts | 237° |
| 2026-04-19 23:32 | 39.21490 | -106.06537 | 31439 ft | 366 kts | 237° |
| 2026-04-19 23:32 | 39.20100 | -106.09315 | 31615 ft | 368 kts | 237° |
| 2026-04-19 23:33 | 39.18705 | -106.12099 | 31770 ft | 371 kts | 237° |
| 2026-04-19 23:33 | 39.17316 | -106.14869 | 31933 ft | 372 kts | 237° |
| 2026-04-19 23:33 | 39.15903 | -106.17685 | 32096 ft | 374 kts | 237° |
| 2026-04-19 23:33 | 39.14478 | -106.20517 | 32223 ft | 377 kts | 237° |
| 2026-04-19 23:34 | 39.13023 | -106.23404 | 32020 ft | 390 kts | 237° |
| 2026-04-19 23:34 | 39.11528 | -106.26376 | 32009 ft | 399 kts | 237° |
| 2026-04-19 23:34 | 39.08404 | -106.32577 | 32010 ft | 416 kts | 237° |
| 2026-04-19 23:35 | 39.05265 | -106.38794 | 32010 ft | 431 kts | 237° |
| 2026-04-19 23:35 | 39.01960 | -106.45326 | 32009 ft | 444 kts | 237° |
| 2026-04-19 23:36 | 38.98533 | -106.52070 | 32009 ft | 455 kts | 237° |
| 2026-04-19 23:36 | 38.95040 | -106.58956 | 32009 ft | 461 kts | 237° |
| 2026-04-19 23:37 | 38.91557 | -106.65820 | 32009 ft | 461 kts | 237° |
| 2026-04-19 23:37 | 38.88050 | -106.72697 | 32216 ft | 463 kts | 237° |
| 2026-04-19 23:38 | 38.86281 | -106.76155 | 32572 ft | 461 kts | 237° |
| 2026-04-19 23:38 | 38.84521 | -106.79594 | 32848 ft | 460 kts | 237° |
| 2026-04-19 23:38 | 38.82763 | -106.83024 | 33162 ft | 459 kts | 237° |
| 2026-04-19 23:38 | 38.81028 | -106.86408 | 33485 ft | 457 kts | 237° |
| 2026-04-19 23:39 | 38.79277 | -106.89822 | 33815 ft | 456 kts | 237° |
| 2026-04-19 23:39 | 38.77528 | -106.93226 | 33977 ft | 456 kts | 237° |
| 2026-04-19 23:39 | 38.74090 | -106.99902 | 34007 ft | 447 kts | 237° |
| 2026-04-19 23:40 | 38.70678 | -107.06512 | 34007 ft | 443 kts | 237° |
| 2026-04-19 23:40 | 38.67261 | -107.13117 | 34009 ft | 445 kts | 237° |
| 2026-04-19 23:41 | 38.63847 | -107.19706 | 34010 ft | 447 kts | 237° |
| 2026-04-19 23:41 | 38.60390 | -107.26376 | 34017 ft | 447 kts | 236° |
| 2026-04-19 23:42 | 38.56979 | -107.32939 | 34030 ft | 446 kts | 236° |
| 2026-04-19 23:42 | 38.53537 | -107.39548 | 34032 ft | 446 kts | 236° |
| 2026-04-19 23:43 | 38.50117 | -107.46108 | 34026 ft | 445 kts | 236° |
| 2026-04-19 23:43 | 38.46670 | -107.52707 | 34030 ft | 445 kts | 236° |
| 2026-04-19 23:44 | 38.43238 | -107.59239 | 34037 ft | 444 kts | 236° |
| 2026-04-19 23:44 | 38.39790 | -107.65791 | 34036 ft | 443 kts | 236° |
| 2026-04-19 23:45 | 38.36369 | -107.72293 | 34032 ft | 443 kts | 236° |
| 2026-04-19 23:45 | 38.32924 | -107.78828 | 34040 ft | 442 kts | 236° |
| 2026-04-19 23:46 | 38.29511 | -107.85285 | 34041 ft | 441 kts | 236° |
| 2026-04-19 23:46 | 38.26082 | -107.91786 | 34027 ft | 441 kts | 236° |
| 2026-04-19 23:47 | 38.22641 | -107.98279 | 34025 ft | 442 kts | 236° |
| 2026-04-19 23:47 | 38.19206 | -108.04732 | 34014 ft | 443 kts | 236° |
| 2026-04-19 23:48 | 38.15741 | -108.11234 | 34020 ft | 443 kts | 236° |
| 2026-04-19 23:48 | 38.12296 | -108.17684 | 34027 ft | 443 kts | 236° |
| 2026-04-19 23:49 | 38.08826 | -108.24180 | 34033 ft | 442 kts | 236° |
| 2026-04-19 23:49 | 38.05391 | -108.30604 | 34035 ft | 442 kts | 236° |
| 2026-04-19 23:50 | 38.01920 | -108.37058 | 34032 ft | 442 kts | 236° |
| 2026-04-19 23:50 | 37.98467 | -108.43464 | 34025 ft | 442 kts | 236° |
| 2026-04-19 23:51 | 37.94990 | -108.49928 | 34027 ft | 442 kts | 236° |
| 2026-04-19 23:51 | 37.91517 | -108.56363 | 34033 ft | 442 kts | 236° |
| 2026-04-19 23:52 | 37.88055 | -108.62754 | 34038 ft | 441 kts | 236° |
| 2026-04-19 23:52 | 37.84579 | -108.69163 | 34026 ft | 441 kts | 236° |
| 2026-04-19 23:53 | 37.81124 | -108.75522 | 34026 ft | 441 kts | 236° |
| 2026-04-19 23:53 | 37.77639 | -108.81932 | 34027 ft | 441 kts | 236° |
| 2026-04-19 23:54 | 37.74151 | -108.88331 | 34031 ft | 441 kts | 236° |
| 2026-04-19 23:54 | 37.70684 | -108.94681 | 34038 ft | 440 kts | 236° |
| 2026-04-19 23:55 | 37.67218 | -109.01020 | 34033 ft | 440 kts | 235° |
| 2026-04-19 23:55 | 37.63726 | -109.07398 | 34036 ft | 440 kts | 235° |
| 2026-04-19 23:56 | 37.60257 | -109.13716 | 34034 ft | 439 kts | 235° |
| 2026-04-19 23:56 | 37.56766 | -109.20055 | 34031 ft | 439 kts | 235° |
| 2026-04-19 23:57 | 37.53273 | -109.26377 | 34041 ft | 438 kts | 235° |
| 2026-04-19 23:57 | 37.49806 | -109.32635 | 34035 ft | 437 kts | 235° |
| 2026-04-19 23:58 | 37.46323 | -109.38929 | 34029 ft | 437 kts | 235° |
| 2026-04-19 23:58 | 37.42839 | -109.45212 | 34035 ft | 437 kts | 235° |
| 2026-04-19 23:59 | 37.39383 | -109.51448 | 34037 ft | 436 kts | 235° |
| 2026-04-19 23:59 | 37.35893 | -109.57722 | 34029 ft | 436 kts | 235° |
| 2026-04-20 00:00 | 37.32430 | -109.63915 | 34028 ft | 436 kts | 235° |
| 2026-04-20 00:00 | 37.28941 | -109.70158 | 34036 ft | 435 kts | 235° |
| 2026-04-20 00:01 | 37.26044 | -109.75341 | 34026 ft | 435 kts | 235° |
| 2026-04-20 00:02 | 37.20808 | -109.84678 | 34036 ft | 435 kts | 235° |
| 2026-04-20 00:02 | 37.17333 | -109.90856 | 34031 ft | 435 kts | 235° |
| 2026-04-20 00:03 | 37.13832 | -109.97072 | 34030 ft | 435 kts | 235° |
| 2026-04-20 00:03 | 37.12671 | -109.99131 | 34024 ft | 435 kts | 235° |
| 2026-04-20 00:04 | 37.06822 | -110.09477 | 34026 ft | 435 kts | 234° |
| 2026-04-20 00:04 | 37.03308 | -110.15681 | 34025 ft | 436 kts | 235° |
| 2026-04-20 00:05 | 36.99814 | -110.21853 | 34026 ft | 436 kts | 234° |
| 2026-04-20 00:05 | 36.96293 | -110.28056 | 34027 ft | 436 kts | 234° |
| 2026-04-20 00:06 | 36.92768 | -110.34247 | 34026 ft | 436 kts | 234° |
| 2026-04-20 00:06 | 36.89259 | -110.40382 | 34028 ft | 436 kts | 234° |
| 2026-04-20 00:07 | 36.85719 | -110.46563 | 34019 ft | 437 kts | 234° |
| 2026-04-20 00:07 | 36.82195 | -110.52708 | 34020 ft | 438 kts | 234° |
| 2026-04-20 00:08 | 36.78650 | -110.58901 | 34020 ft | 438 kts | 234° |
| 2026-04-20 00:08 | 36.75114 | -110.65064 | 34023 ft | 439 kts | 234° |
| 2026-04-20 00:09 | 36.71545 | -110.71251 | 34026 ft | 439 kts | 234° |
| 2026-04-20 00:09 | 36.67982 | -110.77421 | 34030 ft | 438 kts | 234° |
| 2026-04-20 00:10 | 36.64441 | -110.83558 | 34033 ft | 438 kts | 234° |
| 2026-04-20 00:10 | 36.60879 | -110.89716 | 34028 ft | 438 kts | 234° |
| 2026-04-20 00:11 | 36.57300 | -110.95878 | 34028 ft | 438 kts | 234° |
| 2026-04-20 00:11 | 36.53753 | -111.01990 | 34024 ft | 438 kts | 234° |
| 2026-04-20 00:12 | 36.50176 | -111.08135 | 34029 ft | 438 kts | 234° |
| 2026-04-20 00:12 | 36.46616 | -111.14232 | 34030 ft | 437 kts | 234° |
| 2026-04-20 00:13 | 36.43040 | -111.20365 | 34032 ft | 437 kts | 234° |
| 2026-04-20 00:13 | 36.39476 | -111.26454 | 34027 ft | 437 kts | 234° |
| 2026-04-20 00:14 | 36.35887 | -111.32569 | 34032 ft | 436 kts | 234° |
| 2026-04-20 00:14 | 36.32321 | -111.38631 | 34033 ft | 436 kts | 234° |
| 2026-04-20 00:15 | 36.28743 | -111.44714 | 34035 ft | 436 kts | 234° |
| 2026-04-20 00:15 | 36.25177 | -111.50759 | 34025 ft | 436 kts | 234° |
| 2026-04-20 00:16 | 36.21592 | -111.56826 | 34024 ft | 436 kts | 234° |
| 2026-04-20 00:16 | 36.18013 | -111.62884 | 34034 ft | 435 kts | 234° |
| 2026-04-20 00:17 | 36.14449 | -111.68904 | 34033 ft | 435 kts | 234° |
| 2026-04-20 00:17 | 36.10851 | -111.74954 | 34027 ft | 435 kts | 234° |
| 2026-04-20 00:18 | 36.07380 | -111.81029 | 34019 ft | 435 kts | 241° |
| 2026-04-20 00:18 | 36.05003 | -111.87915 | 34027 ft | 434 kts | 249° |
| 2026-04-20 00:19 | 36.02800 | -111.94820 | 34030 ft | 434 kts | 248° |
| 2026-04-20 00:19 | 36.00563 | -112.01754 | 34031 ft | 433 kts | 248° |
| 2026-04-20 00:20 | 35.98327 | -112.08684 | 34011 ft | 434 kts | 248° |
| 2026-04-20 00:20 | 35.96105 | -112.15611 | 34007 ft | 435 kts | 248° |
| 2026-04-20 00:21 | 35.93869 | -112.22576 | 34015 ft | 436 kts | 248° |
| 2026-04-20 00:21 | 35.91634 | -112.29500 | 34022 ft | 436 kts | 248° |
| 2026-04-20 00:22 | 35.89381 | -112.36460 | 34026 ft | 436 kts | 248° |
| 2026-04-20 00:22 | 35.87126 | -112.43374 | 34027 ft | 436 kts | 248° |
| 2026-04-20 00:23 | 35.84867 | -112.50313 | 34033 ft | 435 kts | 248° |
| 2026-04-20 00:23 | 35.82623 | -112.57207 | 34033 ft | 435 kts | 248° |
| 2026-04-20 00:24 | 35.80363 | -112.64141 | 34032 ft | 435 kts | 248° |
| 2026-04-20 00:24 | 35.78109 | -112.71023 | 34024 ft | 435 kts | 248° |
| 2026-04-20 00:25 | 35.75833 | -112.77948 | 34029 ft | 435 kts | 248° |
| 2026-04-20 00:25 | 35.73568 | -112.84826 | 34028 ft | 435 kts | 248° |
| 2026-04-20 00:26 | 35.71287 | -112.91741 | 34024 ft | 435 kts | 248° |
| 2026-04-20 00:26 | 35.69018 | -112.98606 | 34022 ft | 435 kts | 248° |
| 2026-04-20 00:27 | 35.66728 | -113.05527 | 34028 ft | 435 kts | 248° |
| 2026-04-20 00:27 | 35.64448 | -113.12389 | 34021 ft | 435 kts | 248° |
| 2026-04-20 00:28 | 35.62150 | -113.19276 | 34031 ft | 435 kts | 248° |
| 2026-04-20 00:28 | 35.59862 | -113.26125 | 34028 ft | 435 kts | 248° |
| 2026-04-20 00:29 | 35.57555 | -113.33013 | 34027 ft | 435 kts | 248° |
| 2026-04-20 00:29 | 35.55267 | -113.39839 | 34033 ft | 434 kts | 248° |
| 2026-04-20 00:30 | 35.52964 | -113.46715 | 34030 ft | 434 kts | 248° |
| 2026-04-20 00:30 | 35.50677 | -113.53531 | 34031 ft | 433 kts | 248° |
| 2026-04-20 00:31 | 35.48362 | -113.60368 | 34027 ft | 433 kts | 247° |
| 2026-04-20 00:31 | 35.46046 | -113.67193 | 34031 ft | 432 kts | 248° |
| 2026-04-20 00:32 | 35.43752 | -113.73965 | 34031 ft | 432 kts | 248° |
| 2026-04-20 00:32 | 35.41443 | -113.80790 | 34030 ft | 432 kts | 248° |
| 2026-04-20 00:33 | 35.39127 | -113.87595 | 34036 ft | 431 kts | 247° |
| 2026-04-20 00:33 | 35.36825 | -113.94333 | 34029 ft | 430 kts | 247° |
| 2026-04-20 00:34 | 35.34505 | -114.01114 | 34033 ft | 430 kts | 247° |
| 2026-04-20 00:34 | 35.32200 | -114.07833 | 34030 ft | 430 kts | 247° |
| 2026-04-20 00:35 | 35.29872 | -114.14600 | 34020 ft | 431 kts | 247° |
| 2026-04-20 00:35 | 35.27556 | -114.21332 | 34027 ft | 430 kts | 247° |
| 2026-04-20 00:36 | 35.25228 | -114.28086 | 34027 ft | 430 kts | 247° |
| 2026-04-20 00:36 | 35.22894 | -114.34831 | 34026 ft | 429 kts | 247° |
| 2026-04-20 00:37 | 35.20573 | -114.41529 | 34027 ft | 429 kts | 247° |
| 2026-04-20 00:37 | 35.18236 | -114.48262 | 34035 ft | 429 kts | 247° |
| 2026-04-20 00:38 | 35.15907 | -114.54934 | 34036 ft | 428 kts | 247° |
| 2026-04-20 00:38 | 35.13568 | -114.61628 | 34034 ft | 426 kts | 247° |
| 2026-04-20 00:39 | 35.11245 | -114.68299 | 34033 ft | 426 kts | 247° |
| 2026-04-20 00:39 | 35.08949 | -114.74924 | 34031 ft | 426 kts | 247° |
| 2026-04-20 00:40 | 35.06632 | -114.81596 | 34024 ft | 426 kts | 247° |
| 2026-04-20 00:40 | 35.04303 | -114.88266 | 34021 ft | 426 kts | 247° |
| 2026-04-20 00:41 | 35.01829 | -114.94802 | 34015 ft | 427 kts | 243° |
| 2026-04-20 00:41 | 34.98957 | -115.01311 | 34012 ft | 444 kts | 241° |
| 2026-04-20 00:42 | 34.95934 | -115.08003 | 34011 ft | 461 kts | 242° |
| 2026-04-20 00:42 | 34.92881 | -115.14956 | 34010 ft | 466 kts | 242° |
| 2026-04-20 00:43 | 34.89869 | -115.21930 | 34008 ft | 467 kts | 242° |
| 2026-04-20 00:43 | 34.86830 | -115.28936 | 34008 ft | 467 kts | 242° |
| 2026-04-20 00:44 | 34.83770 | -115.35933 | 34010 ft | 467 kts | 242° |
| 2026-04-20 00:44 | 34.80722 | -115.42870 | 34010 ft | 467 kts | 242° |
| 2026-04-20 00:45 | 34.77751 | -115.49922 | 34017 ft | 467 kts | 245° |
| 2026-04-20 00:45 | 34.75109 | -115.57147 | 34013 ft | 467 kts | 247° |
| 2026-04-20 00:46 | 34.72566 | -115.64393 | 34015 ft | 468 kts | 246° |
| 2026-04-20 00:46 | 34.69942 | -115.71643 | 34016 ft | 468 kts | 246° |
| 2026-04-20 00:47 | 34.67710 | -115.77647 | 34021 ft | 468 kts | 245° |
| 2026-04-20 00:47 | 34.65026 | -115.84818 | 34030 ft | 468 kts | 245° |
| 2026-04-20 00:48 | 34.61898 | -115.93200 | 34030 ft | 467 kts | 246° |
| 2026-04-20 00:48 | 34.59692 | -115.99190 | 34031 ft | 466 kts | 246° |
| 2026-04-20 00:49 | 34.57053 | -116.06390 | 34030 ft | 466 kts | 246° |
| 2026-04-20 00:49 | 34.54403 | -116.13585 | 34026 ft | 466 kts | 246° |
| 2026-04-20 00:50 | 34.51754 | -116.20717 | 34011 ft | 466 kts | 246° |
| 2026-04-20 00:50 | 34.49082 | -116.27903 | 34007 ft | 468 kts | 246° |
| 2026-04-20 00:51 | 34.46412 | -116.35064 | 33692 ft | 469 kts | 246° |
| 2026-04-20 00:51 | 34.45061 | -116.38685 | 32449 ft | 470 kts | 246° |
| 2026-04-20 00:51 | 34.43720 | -116.42280 | 31203 ft | 469 kts | 246° |
| 2026-04-20 00:51 | 34.42368 | -116.45898 | 29951 ft | 471 kts | 245° |
| 2026-04-20 00:52 | 34.40994 | -116.49527 | 29189 ft | 473 kts | 245° |
| 2026-04-20 00:52 | 34.39560 | -116.53141 | 28748 ft | 474 kts | 244° |
| 2026-04-20 00:52 | 34.38099 | -116.56684 | 28286 ft | 477 kts | 243° |
| 2026-04-20 00:52 | 34.36582 | -116.60282 | 27800 ft | 480 kts | 243° |
| 2026-04-20 00:53 | 34.35055 | -116.63880 | 27286 ft | 480 kts | 243° |
| 2026-04-20 00:53 | 34.33535 | -116.67489 | 26777 ft | 482 kts | 243° |
| 2026-04-20 00:53 | 34.32026 | -116.71130 | 26242 ft | 484 kts | 244° |
| 2026-04-20 00:53 | 34.30555 | -116.74764 | 25705 ft | 487 kts | 244° |
| 2026-04-20 00:54 | 34.29082 | -116.78466 | 25144 ft | 489 kts | 244° |
| 2026-04-20 00:54 | 34.27605 | -116.82190 | 24555 ft | 491 kts | 244° |
| 2026-04-20 00:54 | 34.26117 | -116.85927 | 23954 ft | 493 kts | 244° |
| 2026-04-20 00:54 | 34.24617 | -116.89671 | 23361 ft | 494 kts | 244° |
| 2026-04-20 00:55 | 34.23126 | -116.93365 | 22768 ft | 493 kts | 244° |
| 2026-04-20 00:55 | 34.21620 | -116.97088 | 22313 ft | 491 kts | 245° |
| 2026-04-20 00:55 | 34.20397 | -117.00934 | 21915 ft | 488 kts | 251° |
| 2026-04-20 00:55 | 34.19320 | -117.04808 | 21347 ft | 483 kts | 252° |
| 2026-04-20 00:56 | 34.18260 | -117.08711 | 20731 ft | 478 kts | 252° |
| 2026-04-20 00:56 | 34.17272 | -117.12404 | 20175 ft | 471 kts | 252° |
| 2026-04-20 00:56 | 34.16280 | -117.16111 | 19166 ft | 464 kts | 252° |
| 2026-04-20 00:56 | 34.15286 | -117.19796 | 18259 ft | 453 kts | 252° |
| 2026-04-20 00:57 | 34.14350 | -117.23260 | 17684 ft | 427 kts | 252° |
| 2026-04-20 00:57 | 34.13449 | -117.26594 | 17132 ft | 406 kts | 252° |
| 2026-04-20 00:57 | 34.12589 | -117.29773 | 16605 ft | 389 kts | 252° |
| 2026-04-20 00:57 | 34.11775 | -117.32784 | 16117 ft | 373 kts | 252° |
| 2026-04-20 00:58 | 34.10984 | -117.35703 | 15638 ft | 358 kts | 252° |
| 2026-04-20 00:58 | 34.10222 | -117.38514 | 15183 ft | 348 kts | 252° |
| 2026-04-20 00:58 | 34.09468 | -117.41330 | 14120 ft | 360 kts | 252° |
| 2026-04-20 00:58 | 34.08692 | -117.44314 | 12687 ft | 381 kts | 253° |
| 2026-04-20 00:59 | 34.07904 | -117.47416 | 11309 ft | 400 kts | 253° |
| 2026-04-20 00:59 | 34.07185 | -117.50662 | 10596 ft | 397 kts | 259° |
| 2026-04-20 00:59 | 34.06703 | -117.53881 | 10284 ft | 381 kts | 260° |
| 2026-04-20 00:59 | 34.06256 | -117.56950 | 10115 ft | 362 kts | 260° |
| 2026-04-20 01:00 | 34.05835 | -117.59869 | 10015 ft | 344 kts | 260° |
| 2026-04-20 01:00 | 34.05439 | -117.62620 | 10033 ft | 324 kts | 260° |
| 2026-04-20 01:00 | 34.05061 | -117.65208 | 10036 ft | 308 kts | 260° |
| 2026-04-20 01:00 | 34.04698 | -117.67698 | 10036 ft | 293 kts | 260° |
| 2026-04-20 01:01 | 34.04322 | -117.70086 | 9831 ft | 290 kts | 258° |
| 2026-04-20 01:01 | 34.03905 | -117.72475 | 9435 ft | 290 kts | 258° |
| 2026-04-20 01:01 | 34.03472 | -117.74849 | 9081 ft | 289 kts | 257° |
| 2026-04-20 01:01 | 34.03043 | -117.77183 | 8736 ft | 288 kts | 257° |
| 2026-04-20 01:02 | 34.02611 | -117.79542 | 8394 ft | 286 kts | 258° |
| 2026-04-20 01:02 | 34.02188 | -117.81882 | 8052 ft | 285 kts | 258° |
| 2026-04-20 01:02 | 34.01768 | -117.84205 | 7721 ft | 283 kts | 258° |
| 2026-04-20 01:02 | 34.01352 | -117.86514 | 7252 ft | 280 kts | 258° |
| 2026-04-20 01:03 | 34.00941 | -117.88800 | 6780 ft | 279 kts | 258° |
| 2026-04-20 01:03 | 34.00536 | -117.91050 | 6290 ft | 275 kts | 258° |
| 2026-04-20 01:03 | 34.00134 | -117.93269 | 5881 ft | 266 kts | 258° |
| 2026-04-20 01:03 | 33.99743 | -117.95435 | 5538 ft | 263 kts | 258° |
| 2026-04-20 01:04 | 33.99353 | -117.97593 | 5204 ft | 263 kts | 258° |
| 2026-04-20 01:04 | 33.98969 | -117.99725 | 4876 ft | 263 kts | 258° |
| 2026-04-20 01:04 | 33.98579 | -118.01879 | 4544 ft | 263 kts | 258° |
| 2026-04-20 01:04 | 33.98195 | -118.03998 | 4443 ft | 254 kts | 258° |
| 2026-04-20 01:05 | 33.97956 | -118.05315 | 4366 ft | 254 kts | 258° |
| 2026-04-20 01:05 | 33.97628 | -118.07124 | 4296 ft | 254 kts | 258° |
| 2026-04-20 01:05 | 33.97249 | -118.09204 | 4181 ft | 253 kts | 258° |
| 2026-04-20 01:05 | 33.96879 | -118.11229 | 4096 ft | 242 kts | 258° |
| 2026-04-20 01:06 | 33.96497 | -118.13173 | 3965 ft | 234 kts | 254° |
| 2026-04-20 01:06 | 33.96115 | -118.15071 | 3827 ft | 232 kts | 260° |
| 2026-04-20 01:06 | 33.95883 | -118.16958 | 3555 ft | 230 kts | 263° |
| 2026-04-20 01:06 | 33.95692 | -118.18878 | 3257 ft | 229 kts | 263° |
| 2026-04-20 01:07 | 33.95503 | -118.20786 | 2954 ft | 229 kts | 263° |
| 2026-04-20 01:07 | 33.95312 | -118.22691 | 2650 ft | 228 kts | 263° |
| 2026-04-20 01:07 | 33.95122 | -118.24584 | 2348 ft | 227 kts | 263° |
| 2026-04-20 01:07 | 33.94933 | -118.26453 | 2048 ft | 218 kts | 263° |
| 2026-04-20 01:08 | 33.94759 | -118.28176 | 1788 ft | 201 kts | 263° |
| 2026-04-20 01:08 | 33.94599 | -118.29764 | 1530 ft | 175 kts | 263° |
| 2026-04-20 01:08 | 33.94461 | -118.31121 | 1300 ft | 152 kts | 263° |
| 2026-04-20 01:08 | 33.94337 | -118.32344 | 1103 ft | 143 kts | 263° |
| 2026-04-20 01:09 | 33.94220 | -118.33502 | 921 ft | 139 kts | 263° |
| 2026-04-20 01:09 | 33.94103 | -118.34655 | 737 ft | 138 kts | 263° |
| 2026-04-20 01:09 | 33.93984 | -118.35803 | 556 ft | 138 kts | 263° |
| 2026-04-20 01:09 | 33.93876 | -118.36947 | 350 ft | 137 kts | 263° |
| 2026-04-20 01:10 | 33.93757 | -118.38089 | 193 ft | 137 kts | 263° |
| 2026-04-20 01:10 | 33.93577 | -118.39980 | 112 ft | 69 kts | 264° |
| 2026-04-20 01:10 | 33.93529 | -118.40433 | 112 ft | 34 kts | 263° |
| 2026-04-20 01:11 | 33.93592 | -118.40651 | 106 ft | 18 kts | 283° |
| 2026-04-20 01:11 | 33.93598 | -118.40740 | 105 ft | 6 kts | 268° |
| 2026-04-20 01:11 | 33.93599 | -118.40806 | 105 ft | 15 kts | 278° |
| 2026-04-20 01:11 | 33.93665 | -118.40896 | 108 ft | 14 kts | 349° |
| 2026-04-20 01:12 | 33.93770 | -118.40910 | 103 ft | 11 kts | 353° |
| 2026-04-20 01:12 | 33.93798 | -118.40914 | 101 ft | 0 kts | 352° |
| 2026-04-20 01:12 | 33.93805 | -118.40913 | 100 ft | 1 kts | 13° |
| 2026-04-20 01:12 | 33.93841 | -118.40917 | 97 ft | 8 kts | 353° |
| 2026-04-20 01:13 | 33.93873 | -118.40865 | 97 ft | 11 kts | 81° |
| 2026-04-20 01:13 | 33.93885 | -118.40753 | 99 ft | 16 kts | 83° |
| 2026-04-20 01:13 | 33.93896 | -118.40629 | 98 ft | 18 kts | 83° |
| 2026-04-20 01:13 | 33.93901 | -118.40583 | 98 ft | 1 kts | 81° |
| 2026-04-20 01:14 | 33.93902 | -118.40576 | 98 ft | 0 kts | 82° |
| 2026-04-20 01:14 | 33.93904 | -118.40557 | 98 ft | 1 kts | 82° |
| 2026-04-20 01:14 | 33.93912 | -118.40488 | 100 ft | 16 kts | 83° |
| 2026-04-20 01:14 | 33.93926 | -118.40335 | 100 ft | 20 kts | 83° |
| 2026-04-20 01:15 | 33.93935 | -118.40252 | 98 ft | 0 kts | 82° |
| 2026-04-20 01:15 | 33.93939 | -118.40210 | 98 ft | 0 kts | 84° |
| 2026-04-20 01:15 | 33.93947 | -118.40126 | 98 ft | 16 kts | 82° |
| 2026-04-20 01:15 | 33.93996 | -118.40061 | 97 ft | 13 kts | 1° |
| 2026-04-20 01:16 | 33.94108 | -118.40079 | 97 ft | 18 kts | 352° |
| 2026-04-20 01:16 | 33.94143 | -118.40122 | 95 ft | 6 kts | 267° |
| 2026-04-20 01:16 | 33.94145 | -118.40147 | 96 ft | 1 kts | 276° |
| 2026-04-20 01:16 | 33.94145 | -118.40148 | 96 ft | 0 kts | 276° |